Airfield :
LOGIN :

Register | Disclaimer

   EN    FR    IT 

 










Legend :    VFR   Marginal VFR   IFR   Intensive IFR   Very Intensive IFR
Visi :
Ceiling :
>= 8 km
>= 3000ft
5 to 8 km
1000 to 3000 ft
1500m to 5 km
500 to 1000 ft
800 to 1500m
200 to 500 ft
< 800m
< 200 ft
Symbols :   Thunderstorms  Fog  Heavy snow  Heavy precipitations  Wind > 20 kt
SIGMETs :     Misc.  Thunderstorms  Icing  Turbulence  Mountain Waves  Volcanic Ashes







- Airport Elevation : 1521 ft
- IATA code : NCY
- Download approach charts


LFLP - Annecy

CURRENT METAR :
  • 261530Z AUTO 31007KT 270V340 9999 -RA FEW037/// BKN046/// BKN064/// ///TCU 09/05 Q1018 TEMPO TSRA SCT040CB BECMG 20012KT

EXPIRED METARs :
  • 261500Z AUTO 13006KT 9999 -RA BKN045/// BKN052/// OVC074/// ///TCU 11/05 Q1017 TEMPO TSRA SCT040CB BECMG 20012KT
  • 261430Z AUTO 14009KT 110V170 9999 -RA BKN049/// BKN056/// BKN066/// ///CB 12/06 Q1017 TEMPO TSRA
  • 261400Z AUTO 15011KT 9999 BKN050 BKN066 BKN080 13/06 Q1016 TEMPO TSRA SCT040CB
  • 261330Z AUTO 15006KT 110V220 9999 FEW046/// ///TCU 15/06 Q1016 TEMPO TSRA SCT040CB
  • 261300Z AUTO VRB04KT 9999 FEW066/// BKN086/// ///CB 15/04 Q1017 TEMPO TSRA

TAF TAF LFLP
Valid from the 26 at 15:00 until the 27 at 15:00 UTC


261400Z 2615/2715 20012KT 9999 SCT050TCU
TEMPO 2615/2618 SHRA
PROB40
TEMPO 2615/2618 TSRA SCT040CB
BECMG 2619/2621 SCT055
TEMPO 2622/2707 RA OVC025
BECMG 2708/2710 SCT040TCU
TEMPO 2710/2715 VRB15G25KT 4500 SHRA BKN040TCU
No reported NOTAMs for that airfield.
2 SIGMETs reported for the Marseille FIR (LFMM) :
 
Severe turbulence
LFMM SIGMET 4 VALID 261400/261800 LFPW
LFMM MARSEILLE FIR/UIR SEV TURB FCST WI N4300 E00945 - N4115 E00945 - N4115 E00915 - N4300 E00845 - N4300 E00945 SFC/FL120 STNR INTSF=
Severe turbulence
LFMM SIGMET 3 VALID 261400/261800 LFPW
LFMM MARSEILLE FIR/UIR SEV TURB FCST WI N4245 E00230 - N4330 E00245 - N4415 E00315 - N4400 E00345 - N4315 E00315 - N4300 E00345 - N4230 E00330 - N4245 E00230 SFC/FL050 STNR INTSF=



MET'MAP, your aeronautical weather chart ! - Copyright ORBIFLY December 2007 - Disclaimer

ORBIFLY MET'MAP TEAM :

Programming & Development : Alexandra Zaïnal
Concept & Development : Baudouin d'Aumeries
Co-Development & Prog : Marc-Olivier Méhu
Technical & hardware support : Manuel Goepfert

Contact : metmap@orbifly.com




SOURCES & CREDITS :

   NOAA